sensor_id;sensor_type;location;lat;lon;timestamp;temperature;humidity
8220;DHT22;4151;51.110;7.020;2023-02-11T00:00:09;5.10;99.90
8220;DHT22;4151;51.110;7.020;2023-02-11T00:02:35;5.00;99.90
8220;DHT22;4151;51.110;7.020;2023-02-11T00:05:01;5.00;99.90
8220;DHT22;4151;51.110;7.020;2023-02-11T00:07:30;4.90;99.90
8220;DHT22;4151;51.110;7.020;2023-02-11T00:09:56;4.90;99.90
8220;DHT22;4151;51.110;7.020;2023-02-11T00:12:21;4.90;99.90
8220;DHT22;4151;51.110;7.020;2023-02-11T00:14:47;4.90;99.90
8220;DHT22;4151;51.110;7.020;2023-02-11T00:17:13;4.90;99.90
8220;DHT22;4151;51.110;7.020;2023-02-11T00:19:39;4.90;99.90
8220;DHT22;4151;51.110;7.020;2023-02-11T00:22:05;4.90;99.90
8220;DHT22;4151;51.110;7.020;2023-02-11T00:24:30;4.90;99.90
8220;DHT22;4151;51.110;7.020;2023-02-11T00:26:56;4.80;99.90
8220;DHT22;4151;51.110;7.020;2023-02-11T00:29:22;4.90;99.90
8220;DHT22;4151;51.110;7.020;2023-02-11T00:31:47;4.90;99.90
8220;DHT22;4151;51.110;7.020;2023-02-11T00:34:13;4.90;99.90
8220;DHT22;4151;51.110;7.020;2023-02-11T00:36:39;4.90;99.90
8220;DHT22;4151;51.110;7.020;2023-02-11T00:39:05;5.00;99.90
8220;DHT22;4151;51.110;7.020;2023-02-11T00:41:31;5.00;99.90
8220;DHT22;4151;51.110;7.020;2023-02-11T00:43:57;5.10;99.90
8220;DHT22;4151;51.110;7.020;2023-02-11T00:46:23;5.10;99.90
8220;DHT22;4151;51.110;7.020;2023-02-11T00:48:48;5.20;99.90
8220;DHT22;4151;51.110;7.020;2023-02-11T00:51:16;5.20;99.90
8220;DHT22;4151;51.110;7.020;2023-02-11T00:53:42;5.30;99.90
8220;DHT22;4151;51.110;7.020;2023-02-11T00:56:08;5.30;99.90
8220;DHT22;4151;51.110;7.020;2023-02-11T00:58:34;5.30;99.90
8220;DHT22;4151;51.110;7.020;2023-02-11T01:00:59;5.30;99.90
8220;DHT22;4151;51.110;7.020;2023-02-11T01:03:25;5.40;99.90
8220;DHT22;4151;51.110;7.020;2023-02-11T01:05:51;5.40;99.90
8220;DHT22;4151;51.110;7.020;2023-02-11T01:08:17;5.40;99.90
8220;DHT22;4151;51.110;7.020;2023-02-11T01:10:43;5.40;99.90
8220;DHT22;4151;51.110;7.020;2023-02-11T01:13:09;5.50;99.90
8220;DHT22;4151;51.110;7.020;2023-02-11T01:15:35;5.40;99.90
8220;DHT22;4151;51.110;7.020;2023-02-11T01:18:00;5.40;99.90
8220;DHT22;4151;51.110;7.020;2023-02-11T01:20:27;5.40;99.90
8220;DHT22;4151;51.110;7.020;2023-02-11T01:22:54;5.50;99.90
8220;DHT22;4151;51.110;7.020;2023-02-11T01:25:19;5.40;99.90
8220;DHT22;4151;51.110;7.020;2023-02-11T01:27:45;5.40;99.90
8220;DHT22;4151;51.110;7.020;2023-02-11T01:30:12;5.40;99.90
8220;DHT22;4151;51.110;7.020;2023-02-11T01:32:38;5.30;99.90
8220;DHT22;4151;51.110;7.020;2023-02-11T01:35:05;5.30;99.90
8220;DHT22;4151;51.110;7.020;2023-02-11T01:37:34;5.30;99.90
8220;DHT22;4151;51.110;7.020;2023-02-11T01:40:05;5.20;99.90
8220;DHT22;4151;51.110;7.020;2023-02-11T01:42:32;5.20;99.90
8220;DHT22;4151;51.110;7.020;2023-02-11T01:44:59;5.30;99.90
8220;DHT22;4151;51.110;7.020;2023-02-11T01:47:25;5.30;99.90
8220;DHT22;4151;51.110;7.020;2023-02-11T01:50:01;5.30;99.90
8220;DHT22;4151;51.110;7.020;2023-02-11T01:52:32;5.40;99.90
8220;DHT22;4151;51.110;7.020;2023-02-11T01:55:00;5.40;99.90
8220;DHT22;4151;51.110;7.020;2023-02-11T01:57:51;5.50;99.90
8220;DHT22;4151;51.110;7.020;2023-02-11T02:00:21;5.50;99.90
8220;DHT22;4151;51.110;7.020;2023-02-11T02:02:59;5.60;99.90
8220;DHT22;4151;51.110;7.020;2023-02-11T02:05:44;5.60;99.90
8220;DHT22;4151;51.110;7.020;2023-02-11T02:08:22;5.60;99.90
8220;DHT22;4151;51.110;7.020;2023-02-11T02:10:51;5.60;99.90
8220;DHT22;4151;51.110;7.020;2023-02-11T02:13:21;5.60;99.90
8220;DHT22;4151;51.110;7.020;2023-02-11T02:15:52;5.60;99.90
8220;DHT22;4151;51.110;7.020;2023-02-11T02:21:09;5.70;99.90
8220;DHT22;4151;51.110;7.020;2023-02-11T02:26:36;5.80;99.90
8220;DHT22;4151;51.110;7.020;2023-02-11T02:32:33;5.80;99.90
8220;DHT22;4151;51.110;7.020;2023-02-11T02:37:46;5.80;99.90
8220;DHT22;4151;51.110;7.020;2023-02-11T02:41:00;5.80;99.90
8220;DHT22;4151;51.110;7.020;2023-02-11T02:43:08;5.80;99.90
8220;DHT22;4151;51.110;7.020;2023-02-11T02:45:34;5.70;99.90
8220;DHT22;4151;51.110;7.020;2023-02-11T02:48:00;5.70;99.90
8220;DHT22;4151;51.110;7.020;2023-02-11T02:50:29;5.70;99.90
8220;DHT22;4151;51.110;7.020;2023-02-11T02:53:40;5.60;99.90
8220;DHT22;4151;51.110;7.020;2023-02-11T02:56:51;5.60;99.90
8220;DHT22;4151;51.110;7.020;2023-02-11T03:07:44;5.60;99.90
8220;DHT22;4151;51.110;7.020;2023-02-11T03:10:20;5.60;99.90
8220;DHT22;4151;51.110;7.020;2023-02-11T03:12:47;5.60;99.90
8220;DHT22;4151;51.110;7.020;2023-02-11T03:15:14;5.60;99.90
8220;DHT22;4151;51.110;7.020;2023-02-11T03:17:44;5.60;99.90
8220;DHT22;4151;51.110;7.020;2023-02-11T03:20:12;5.60;99.90
8220;DHT22;4151;51.110;7.020;2023-02-11T03:22:57;5.60;99.90
8220;DHT22;4151;51.110;7.020;2023-02-11T03:25:29;5.60;99.90
8220;DHT22;4151;51.110;7.020;2023-02-11T03:30:48;5.60;99.90
8220;DHT22;4151;51.110;7.020;2023-02-11T03:33:24;5.60;99.90
8220;DHT22;4151;51.110;7.020;2023-02-11T03:35:59;5.60;99.90
8220;DHT22;4151;51.110;7.020;2023-02-11T03:38:30;5.60;99.90
8220;DHT22;4151;51.110;7.020;2023-02-11T03:40:58;5.60;99.90
8220;DHT22;4151;51.110;7.020;2023-02-11T03:43:32;5.60;99.90
8220;DHT22;4151;51.110;7.020;2023-02-11T03:45:59;5.60;99.90
8220;DHT22;4151;51.110;7.020;2023-02-11T03:48:32;5.60;99.90
8220;DHT22;4151;51.110;7.020;2023-02-11T03:51:02;5.70;99.90
8220;DHT22;4151;51.110;7.020;2023-02-11T03:53:28;5.70;99.90
8220;DHT22;4151;51.110;7.020;2023-02-11T03:55:55;5.70;99.90
8220;DHT22;4151;51.110;7.020;2023-02-11T03:58:22;5.70;99.90
8220;DHT22;4151;51.110;7.020;2023-02-11T04:00:48;5.70;99.90
8220;DHT22;4151;51.110;7.020;2023-02-11T04:03:14;5.70;99.90
8220;DHT22;4151;51.110;7.020;2023-02-11T04:05:39;5.70;99.90
8220;DHT22;4151;51.110;7.020;2023-02-11T04:08:05;5.70;99.90
8220;DHT22;4151;51.110;7.020;2023-02-11T04:10:31;5.70;99.90
8220;DHT22;4151;51.110;7.020;2023-02-11T04:12:56;5.70;99.90
8220;DHT22;4151;51.110;7.020;2023-02-11T04:15:22;5.70;99.90
8220;DHT22;4151;51.110;7.020;2023-02-11T04:17:48;5.70;99.90
8220;DHT22;4151;51.110;7.020;2023-02-11T04:20:14;5.60;99.90
8220;DHT22;4151;51.110;7.020;2023-02-11T04:22:39;5.60;99.90
8220;DHT22;4151;51.110;7.020;2023-02-11T04:25:06;5.60;99.90
8220;DHT22;4151;51.110;7.020;2023-02-11T04:27:31;5.60;99.90
8220;DHT22;4151;51.110;7.020;2023-02-11T04:29:57;5.50;99.90
8220;DHT22;4151;51.110;7.020;2023-02-11T04:32:23;5.50;99.90
8220;DHT22;4151;51.110;7.020;2023-02-11T04:34:48;5.50;99.90
8220;DHT22;4151;51.110;7.020;2023-02-11T04:37:14;5.50;99.90
8220;DHT22;4151;51.110;7.020;2023-02-11T04:39:40;5.50;99.90
8220;DHT22;4151;51.110;7.020;2023-02-11T04:42:06;5.50;99.90
8220;DHT22;4151;51.110;7.020;2023-02-11T04:44:31;5.50;99.90
8220;DHT22;4151;51.110;7.020;2023-02-11T04:46:57;5.50;99.90
8220;DHT22;4151;51.110;7.020;2023-02-11T04:49:23;5.50;99.90
8220;DHT22;4151;51.110;7.020;2023-02-11T04:51:48;5.50;99.90
8220;DHT22;4151;51.110;7.020;2023-02-11T04:54:14;5.50;99.90
8220;DHT22;4151;51.110;7.020;2023-02-11T04:56:40;5.50;99.90
8220;DHT22;4151;51.110;7.020;2023-02-11T04:59:05;5.50;99.90
8220;DHT22;4151;51.110;7.020;2023-02-11T05:01:31;5.50;99.90
8220;DHT22;4151;51.110;7.020;2023-02-11T05:03:57;5.50;99.90
8220;DHT22;4151;51.110;7.020;2023-02-11T05:06:23;5.50;99.90
8220;DHT22;4151;51.110;7.020;2023-02-11T05:08:49;5.50;99.90
8220;DHT22;4151;51.110;7.020;2023-02-11T05:11:20;5.50;99.90
8220;DHT22;4151;51.110;7.020;2023-02-11T05:13:46;5.60;99.90
8220;DHT22;4151;51.110;7.020;2023-02-11T05:16:12;5.60;99.90
8220;DHT22;4151;51.110;7.020;2023-02-11T05:18:39;5.60;99.90
8220;DHT22;4151;51.110;7.020;2023-02-11T05:21:10;5.60;99.90
8220;DHT22;4151;51.110;7.020;2023-02-11T05:23:37;5.60;99.90
8220;DHT22;4151;51.110;7.020;2023-02-11T05:26:03;5.60;99.90
8220;DHT22;4151;51.110;7.020;2023-02-11T05:28:30;5.60;99.90
8220;DHT22;4151;51.110;7.020;2023-02-11T05:30:55;5.50;99.90
8220;DHT22;4151;51.110;7.020;2023-02-11T05:33:21;5.50;99.90
8220;DHT22;4151;51.110;7.020;2023-02-11T05:35:46;5.50;99.90
8220;DHT22;4151;51.110;7.020;2023-02-11T05:38:12;5.50;99.90
8220;DHT22;4151;51.110;7.020;2023-02-11T05:40:38;5.50;99.90
8220;DHT22;4151;51.110;7.020;2023-02-11T05:43:04;5.50;99.90
8220;DHT22;4151;51.110;7.020;2023-02-11T05:45:30;5.50;99.90
8220;DHT22;4151;51.110;7.020;2023-02-11T05:47:56;5.50;99.90
8220;DHT22;4151;51.110;7.020;2023-02-11T05:50:21;5.50;99.90
8220;DHT22;4151;51.110;7.020;2023-02-11T05:52:47;5.50;99.90
8220;DHT22;4151;51.110;7.020;2023-02-11T05:55:13;5.50;99.90
8220;DHT22;4151;51.110;7.020;2023-02-11T05:57:38;5.50;99.90
8220;DHT22;4151;51.110;7.020;2023-02-11T06:00:05;5.40;99.90
8220;DHT22;4151;51.110;7.020;2023-02-11T06:02:30;5.40;99.90
8220;DHT22;4151;51.110;7.020;2023-02-11T06:04:56;5.40;99.90
8220;DHT22;4151;51.110;7.020;2023-02-11T06:07:22;5.40;99.90
8220;DHT22;4151;51.110;7.020;2023-02-11T06:09:47;5.40;99.90
8220;DHT22;4151;51.110;7.020;2023-02-11T06:12:13;5.40;99.90
8220;DHT22;4151;51.110;7.020;2023-02-11T06:14:38;5.40;99.90
8220;DHT22;4151;51.110;7.020;2023-02-11T06:17:04;5.40;99.90
8220;DHT22;4151;51.110;7.020;2023-02-11T06:19:29;5.40;99.90
8220;DHT22;4151;51.110;7.020;2023-02-11T06:21:55;5.50;99.90
8220;DHT22;4151;51.110;7.020;2023-02-11T06:24:21;5.50;99.90
8220;DHT22;4151;51.110;7.020;2023-02-11T06:26:47;5.50;99.90
8220;DHT22;4151;51.110;7.020;2023-02-11T06:29:13;5.40;99.90
8220;DHT22;4151;51.110;7.020;2023-02-11T06:31:38;5.40;99.90
8220;DHT22;4151;51.110;7.020;2023-02-11T06:34:06;5.40;99.90
8220;DHT22;4151;51.110;7.020;2023-02-11T06:36:31;5.40;99.90
8220;DHT22;4151;51.110;7.020;2023-02-11T06:38:57;5.40;99.90
8220;DHT22;4151;51.110;7.020;2023-02-11T06:41:22;5.30;99.90
8220;DHT22;4151;51.110;7.020;2023-02-11T06:43:48;5.30;99.90
8220;DHT22;4151;51.110;7.020;2023-02-11T06:46:14;5.30;99.90
8220;DHT22;4151;51.110;7.020;2023-02-11T06:48:40;5.30;99.90
8220;DHT22;4151;51.110;7.020;2023-02-11T06:51:08;5.30;99.90
8220;DHT22;4151;51.110;7.020;2023-02-11T06:53:43;5.30;99.90
8220;DHT22;4151;51.110;7.020;2023-02-11T06:56:12;5.30;99.90
8220;DHT22;4151;51.110;7.020;2023-02-11T06:58:38;5.30;99.90
8220;DHT22;4151;51.110;7.020;2023-02-11T07:01:08;5.30;99.90
8220;DHT22;4151;51.110;7.020;2023-02-11T07:03:34;5.40;99.90
8220;DHT22;4151;51.110;7.020;2023-02-11T07:06:01;5.30;99.90
8220;DHT22;4151;51.110;7.020;2023-02-11T07:08:27;5.30;99.90
8220;DHT22;4151;51.110;7.020;2023-02-11T07:10:52;5.30;99.90
8220;DHT22;4151;51.110;7.020;2023-02-11T07:13:18;5.30;99.90
8220;DHT22;4151;51.110;7.020;2023-02-11T07:15:44;5.30;99.90
8220;DHT22;4151;51.110;7.020;2023-02-11T07:18:09;5.30;99.90
8220;DHT22;4151;51.110;7.020;2023-02-11T07:20:36;5.30;99.90
8220;DHT22;4151;51.110;7.020;2023-02-11T07:23:03;5.30;99.90
8220;DHT22;4151;51.110;7.020;2023-02-11T07:25:29;5.30;99.90
8220;DHT22;4151;51.110;7.020;2023-02-11T07:27:55;5.30;99.90
8220;DHT22;4151;51.110;7.020;2023-02-11T07:30:21;5.30;99.90
8220;DHT22;4151;51.110;7.020;2023-02-11T07:32:47;5.40;99.90
8220;DHT22;4151;51.110;7.020;2023-02-11T07:35:12;5.40;99.90
8220;DHT22;4151;51.110;7.020;2023-02-11T07:37:39;5.40;99.90
8220;DHT22;4151;51.110;7.020;2023-02-11T07:40:06;5.40;99.90
8220;DHT22;4151;51.110;7.020;2023-02-11T07:42:35;5.50;99.90
8220;DHT22;4151;51.110;7.020;2023-02-11T07:45:01;5.50;99.90
8220;DHT22;4151;51.110;7.020;2023-02-11T07:47:26;5.50;99.90
8220;DHT22;4151;51.110;7.020;2023-02-11T07:49:52;5.50;99.90
8220;DHT22;4151;51.110;7.020;2023-02-11T07:52:18;5.50;99.90
8220;DHT22;4151;51.110;7.020;2023-02-11T07:54:44;5.50;99.90
8220;DHT22;4151;51.110;7.020;2023-02-11T07:57:10;5.50;99.90
8220;DHT22;4151;51.110;7.020;2023-02-11T07:59:36;5.50;99.90
8220;DHT22;4151;51.110;7.020;2023-02-11T08:02:01;5.50;99.90
8220;DHT22;4151;51.110;7.020;2023-02-11T08:04:27;5.50;99.90
8220;DHT22;4151;51.110;7.020;2023-02-11T08:06:53;5.50;99.90
8220;DHT22;4151;51.110;7.020;2023-02-11T08:09:21;5.50;99.90
8220;DHT22;4151;51.110;7.020;2023-02-11T08:11:47;5.50;99.90
8220;DHT22;4151;51.110;7.020;2023-02-11T08:14:12;5.60;99.90
8220;DHT22;4151;51.110;7.020;2023-02-11T08:16:38;5.60;99.90
8220;DHT22;4151;51.110;7.020;2023-02-11T08:19:10;5.60;99.90
8220;DHT22;4151;51.110;7.020;2023-02-11T08:21:36;5.60;99.90
8220;DHT22;4151;51.110;7.020;2023-02-11T08:24:02;5.60;99.90
8220;DHT22;4151;51.110;7.020;2023-02-11T08:26:29;5.60;99.90
8220;DHT22;4151;51.110;7.020;2023-02-11T08:28:57;5.70;99.90
8220;DHT22;4151;51.110;7.020;2023-02-11T08:31:25;5.70;99.90
8220;DHT22;4151;51.110;7.020;2023-02-11T08:33:52;5.70;99.90
8220;DHT22;4151;51.110;7.020;2023-02-11T08:36:21;5.70;99.90
8220;DHT22;4151;51.110;7.020;2023-02-11T08:38:48;5.70;99.90
8220;DHT22;4151;51.110;7.020;2023-02-11T08:41:14;5.70;99.90
8220;DHT22;4151;51.110;7.020;2023-02-11T08:43:40;5.70;99.90
8220;DHT22;4151;51.110;7.020;2023-02-11T08:46:07;5.70;99.90
8220;DHT22;4151;51.110;7.020;2023-02-11T08:48:33;5.70;99.90
8220;DHT22;4151;51.110;7.020;2023-02-11T08:50:59;5.70;99.90
8220;DHT22;4151;51.110;7.020;2023-02-11T08:53:25;5.80;99.90
8220;DHT22;4151;51.110;7.020;2023-02-11T08:55:52;5.70;99.90
8220;DHT22;4151;51.110;7.020;2023-02-11T08:58:19;5.80;99.90
8220;DHT22;4151;51.110;7.020;2023-02-11T09:00:45;5.80;99.90
8220;DHT22;4151;51.110;7.020;2023-02-11T09:03:11;5.80;99.90
8220;DHT22;4151;51.110;7.020;2023-02-11T09:05:45;5.90;99.90
8220;DHT22;4151;51.110;7.020;2023-02-11T09:08:11;5.90;99.90
8220;DHT22;4151;51.110;7.020;2023-02-11T09:10:37;5.90;99.90
8220;DHT22;4151;51.110;7.020;2023-02-11T09:13:03;5.90;99.90
8220;DHT22;4151;51.110;7.020;2023-02-11T09:15:29;5.90;99.90
8220;DHT22;4151;51.110;7.020;2023-02-11T09:17:56;5.90;99.90
8220;DHT22;4151;51.110;7.020;2023-02-11T09:20:22;5.90;99.90
8220;DHT22;4151;51.110;7.020;2023-02-11T09:22:48;5.90;99.90
8220;DHT22;4151;51.110;7.020;2023-02-11T09:25:13;6.00;99.90
8220;DHT22;4151;51.110;7.020;2023-02-11T09:27:39;6.00;99.90
8220;DHT22;4151;51.110;7.020;2023-02-11T09:30:05;6.00;99.90
8220;DHT22;4151;51.110;7.020;2023-02-11T09:32:30;6.10;99.90
8220;DHT22;4151;51.110;7.020;2023-02-11T09:34:56;6.10;99.90
8220;DHT22;4151;51.110;7.020;2023-02-11T09:37:22;6.10;99.90
8220;DHT22;4151;51.110;7.020;2023-02-11T09:39:47;6.10;99.90
8220;DHT22;4151;51.110;7.020;2023-02-11T09:45:09;6.10;99.90
8220;DHT22;4151;51.110;7.020;2023-02-11T09:53:13;6.10;99.90
8220;DHT22;4151;51.110;7.020;2023-02-11T09:55:45;6.20;99.90
8220;DHT22;4151;51.110;7.020;2023-02-11T10:06:21;6.20;99.90
8220;DHT22;4151;51.110;7.020;2023-02-11T10:09:06;6.30;99.90
8220;DHT22;4151;51.110;7.020;2023-02-11T10:17:42;6.30;99.90
8220;DHT22;4151;51.110;7.020;2023-02-11T10:22:57;6.30;99.90
8220;DHT22;4151;51.110;7.020;2023-02-11T10:25:37;6.30;99.90
8220;DHT22;4151;51.110;7.020;2023-02-11T10:28:18;6.40;99.90
8220;DHT22;4151;51.110;7.020;2023-02-11T10:30:59;6.40;99.90
8220;DHT22;4151;51.110;7.020;2023-02-11T10:36:12;6.40;99.90
8220;DHT22;4151;51.110;7.020;2023-02-11T10:38:38;6.40;99.90
8220;DHT22;4151;51.110;7.020;2023-02-11T10:41:04;6.40;99.90
8220;DHT22;4151;51.110;7.020;2023-02-11T10:43:32;6.40;99.90
8220;DHT22;4151;51.110;7.020;2023-02-11T10:45:59;6.50;99.90
8220;DHT22;4151;51.110;7.020;2023-02-11T10:48:43;6.50;99.90
8220;DHT22;4151;51.110;7.020;2023-02-11T10:53:35;6.60;99.90
8220;DHT22;4151;51.110;7.020;2023-02-11T10:56:01;6.60;99.90
8220;DHT22;4151;51.110;7.020;2023-02-11T10:58:40;6.60;99.90
8220;DHT22;4151;51.110;7.020;2023-02-11T11:01:08;6.60;99.90
8220;DHT22;4151;51.110;7.020;2023-02-11T11:03:38;6.60;99.90
8220;DHT22;4151;51.110;7.020;2023-02-11T11:06:10;6.60;99.90
8220;DHT22;4151;51.110;7.020;2023-02-11T11:08:42;6.60;99.90
8220;DHT22;4151;51.110;7.020;2023-02-11T11:11:11;6.60;99.90
8220;DHT22;4151;51.110;7.020;2023-02-11T11:16:28;6.70;99.90
8220;DHT22;4151;51.110;7.020;2023-02-11T11:21:41;6.70;99.90
8220;DHT22;4151;51.110;7.020;2023-02-11T11:26:43;6.70;99.90
8220;DHT22;4151;51.110;7.020;2023-02-11T11:29:15;6.70;99.90
8220;DHT22;4151;51.110;7.020;2023-02-11T11:34:21;6.70;99.90
8220;DHT22;4151;51.110;7.020;2023-02-11T11:36:48;6.80;99.90
8220;DHT22;4151;51.110;7.020;2023-02-11T11:39:22;6.80;99.90
8220;DHT22;4151;51.110;7.020;2023-02-11T11:41:50;6.70;99.90
8220;DHT22;4151;51.110;7.020;2023-02-11T11:46:52;6.70;99.90
8220;DHT22;4151;51.110;7.020;2023-02-11T11:49:33;6.70;99.90
8220;DHT22;4151;51.110;7.020;2023-02-11T11:54:43;6.80;99.90
8220;DHT22;4151;51.110;7.020;2023-02-11T11:57:16;6.80;99.90
8220;DHT22;4151;51.110;7.020;2023-02-11T11:59:43;6.80;99.90
8220;DHT22;4151;51.110;7.020;2023-02-11T12:02:25;6.80;99.90
8220;DHT22;4151;51.110;7.020;2023-02-11T12:05:13;6.80;99.90
8220;DHT22;4151;51.110;7.020;2023-02-11T12:26:55;6.70;99.90
8220;DHT22;4151;51.110;7.020;2023-02-11T12:29:27;6.70;99.90
8220;DHT22;4151;51.110;7.020;2023-02-11T12:50:12;6.80;99.90
8220;DHT22;4151;51.110;7.020;2023-02-11T12:55:27;6.80;99.90
8220;DHT22;4151;51.110;7.020;2023-02-11T12:57:56;6.80;99.90
8220;DHT22;4151;51.110;7.020;2023-02-11T13:00:45;6.80;99.90
8220;DHT22;4151;51.110;7.020;2023-02-11T13:03:16;6.80;99.90
8220;DHT22;4151;51.110;7.020;2023-02-11T13:08:16;6.80;99.90
8220;DHT22;4151;51.110;7.020;2023-02-11T13:10:49;6.80;99.90
8220;DHT22;4151;51.110;7.020;2023-02-11T13:13:29;6.90;99.90
8220;DHT22;4151;51.110;7.020;2023-02-11T13:16:05;6.90;99.90
8220;DHT22;4151;51.110;7.020;2023-02-11T13:23:53;6.90;99.90
8220;DHT22;4151;51.110;7.020;2023-02-11T13:31:34;6.90;99.90
8220;DHT22;4151;51.110;7.020;2023-02-11T13:34:00;6.90;99.90
8220;DHT22;4151;51.110;7.020;2023-02-11T13:36:29;6.90;99.90
8220;DHT22;4151;51.110;7.020;2023-02-11T13:38:59;7.00;99.90
8220;DHT22;4151;51.110;7.020;2023-02-11T13:41:34;7.00;99.90
8220;DHT22;4151;51.110;7.020;2023-02-11T13:47:05;7.10;99.90
8220;DHT22;4151;51.110;7.020;2023-02-11T13:49:34;7.20;99.90
8220;DHT22;4151;51.110;7.020;2023-02-11T13:52:05;7.20;99.90
8220;DHT22;4151;51.110;7.020;2023-02-11T13:54:36;7.20;99.90
8220;DHT22;4151;51.110;7.020;2023-02-11T13:59:51;7.30;99.90
8220;DHT22;4151;51.110;7.020;2023-02-11T14:02:36;7.30;99.90
8220;DHT22;4151;51.110;7.020;2023-02-11T14:05:26;7.30;99.90
8220;DHT22;4151;51.110;7.020;2023-02-11T14:08:12;7.30;99.90
8220;DHT22;4151;51.110;7.020;2023-02-11T14:16:15;7.40;99.90
8220;DHT22;4151;51.110;7.020;2023-02-11T14:23:39;7.40;99.90
8220;DHT22;4151;51.110;7.020;2023-02-11T14:28:42;7.40;99.90
8220;DHT22;4151;51.110;7.020;2023-02-11T14:31:19;7.40;99.90
8220;DHT22;4151;51.110;7.020;2023-02-11T14:36:49;7.50;99.90
8220;DHT22;4151;51.110;7.020;2023-02-11T14:41:48;7.50;99.90
8220;DHT22;4151;51.110;7.020;2023-02-11T14:44:20;7.40;99.90
8220;DHT22;4151;51.110;7.020;2023-02-11T14:46:48;7.40;99.90
8220;DHT22;4151;51.110;7.020;2023-02-11T14:49:27;7.50;99.90
8220;DHT22;4151;51.110;7.020;2023-02-11T14:51:59;7.50;99.90
8220;DHT22;4151;51.110;7.020;2023-02-11T14:54:28;7.50;99.90
8220;DHT22;4151;51.110;7.020;2023-02-11T14:57:15;7.50;99.90
8220;DHT22;4151;51.110;7.020;2023-02-11T15:00:04;7.50;99.90
8220;DHT22;4151;51.110;7.020;2023-02-11T15:02:37;7.50;99.90
8220;DHT22;4151;51.110;7.020;2023-02-11T15:05:24;7.50;99.90
8220;DHT22;4151;51.110;7.020;2023-02-11T15:07:59;7.50;99.90
8220;DHT22;4151;51.110;7.020;2023-02-11T15:12:54;7.50;99.90
8220;DHT22;4151;51.110;7.020;2023-02-11T15:15:19;7.50;99.90
8220;DHT22;4151;51.110;7.020;2023-02-11T15:17:45;7.50;99.90
8220;DHT22;4151;51.110;7.020;2023-02-11T15:20:37;7.50;99.90
8220;DHT22;4151;51.110;7.020;2023-02-11T15:23:07;7.50;99.90
8220;DHT22;4151;51.110;7.020;2023-02-11T15:25:43;7.50;99.90
8220;DHT22;4151;51.110;7.020;2023-02-11T15:28:20;7.60;99.90
8220;DHT22;4151;51.110;7.020;2023-02-11T15:30:46;7.60;99.90
8220;DHT22;4151;51.110;7.020;2023-02-11T15:33:21;7.60;99.90
8220;DHT22;4151;51.110;7.020;2023-02-11T15:35:47;7.60;99.90
8220;DHT22;4151;51.110;7.020;2023-02-11T15:38:13;7.60;99.90
8220;DHT22;4151;51.110;7.020;2023-02-11T15:40:38;7.60;99.90
8220;DHT22;4151;51.110;7.020;2023-02-11T15:43:06;7.50;99.90
8220;DHT22;4151;51.110;7.020;2023-02-11T15:50:34;7.60;99.90
8220;DHT22;4151;51.110;7.020;2023-02-11T15:53:13;7.60;99.90
8220;DHT22;4151;51.110;7.020;2023-02-11T15:55:40;7.60;99.90
8220;DHT22;4151;51.110;7.020;2023-02-11T15:58:08;7.60;99.90
8220;DHT22;4151;51.110;7.020;2023-02-11T16:00:37;7.60;99.90
8220;DHT22;4151;51.110;7.020;2023-02-11T16:03:21;7.60;99.90
8220;DHT22;4151;51.110;7.020;2023-02-11T16:05:47;7.60;99.90
8220;DHT22;4151;51.110;7.020;2023-02-11T16:08:27;7.60;99.90
8220;DHT22;4151;51.110;7.020;2023-02-11T16:10:59;7.50;99.90
8220;DHT22;4151;51.110;7.020;2023-02-11T16:13:31;7.50;99.90
8220;DHT22;4151;51.110;7.020;2023-02-11T16:16:02;7.50;99.90
8220;DHT22;4151;51.110;7.020;2023-02-11T16:20:59;7.50;99.90
8220;DHT22;4151;51.110;7.020;2023-02-11T16:23:32;7.50;99.90
8220;DHT22;4151;51.110;7.020;2023-02-11T16:26:04;7.50;99.90
8220;DHT22;4151;51.110;7.020;2023-02-11T16:28:32;7.50;99.90
8220;DHT22;4151;51.110;7.020;2023-02-11T16:30:58;7.50;99.90
8220;DHT22;4151;51.110;7.020;2023-02-11T16:33:24;7.50;99.90
8220;DHT22;4151;51.110;7.020;2023-02-11T16:35:49;7.50;99.90
8220;DHT22;4151;51.110;7.020;2023-02-11T16:38:16;7.50;99.90
8220;DHT22;4151;51.110;7.020;2023-02-11T16:40:42;7.50;99.90
8220;DHT22;4151;51.110;7.020;2023-02-11T16:43:11;7.50;99.90
8220;DHT22;4151;51.110;7.020;2023-02-11T16:45:37;7.50;99.90
8220;DHT22;4151;51.110;7.020;2023-02-11T16:48:05;7.40;99.90
8220;DHT22;4151;51.110;7.020;2023-02-11T16:50:31;7.40;99.90
8220;DHT22;4151;51.110;7.020;2023-02-11T16:52:58;7.40;99.90
8220;DHT22;4151;51.110;7.020;2023-02-11T16:55:24;7.40;99.90
8220;DHT22;4151;51.110;7.020;2023-02-11T16:57:49;7.40;99.90
8220;DHT22;4151;51.110;7.020;2023-02-11T17:00:16;7.40;99.90
8220;DHT22;4151;51.110;7.020;2023-02-11T17:02:42;7.40;99.90
8220;DHT22;4151;51.110;7.020;2023-02-11T17:05:15;7.40;99.90
8220;DHT22;4151;51.110;7.020;2023-02-11T17:07:41;7.40;99.90
8220;DHT22;4151;51.110;7.020;2023-02-11T17:10:17;7.40;99.90
8220;DHT22;4151;51.110;7.020;2023-02-11T17:12:43;7.40;99.90
8220;DHT22;4151;51.110;7.020;2023-02-11T17:15:09;7.40;99.90
8220;DHT22;4151;51.110;7.020;2023-02-11T17:17:35;7.30;99.90
8220;DHT22;4151;51.110;7.020;2023-02-11T17:20:01;7.30;99.90
8220;DHT22;4151;51.110;7.020;2023-02-11T17:22:26;7.30;99.90
8220;DHT22;4151;51.110;7.020;2023-02-11T17:24:52;7.40;99.90
8220;DHT22;4151;51.110;7.020;2023-02-11T17:27:20;7.40;99.90
8220;DHT22;4151;51.110;7.020;2023-02-11T17:29:45;7.40;99.90
8220;DHT22;4151;51.110;7.020;2023-02-11T17:32:11;7.40;99.90
8220;DHT22;4151;51.110;7.020;2023-02-11T17:34:37;7.40;99.90
8220;DHT22;4151;51.110;7.020;2023-02-11T17:37:02;7.40;99.90
8220;DHT22;4151;51.110;7.020;2023-02-11T17:39:33;7.40;99.90
8220;DHT22;4151;51.110;7.020;2023-02-11T17:41:59;7.30;99.90
8220;DHT22;4151;51.110;7.020;2023-02-11T17:44:26;7.40;99.90
8220;DHT22;4151;51.110;7.020;2023-02-11T17:46:51;7.30;99.90
8220;DHT22;4151;51.110;7.020;2023-02-11T17:49:17;7.30;99.90
8220;DHT22;4151;51.110;7.020;2023-02-11T17:51:43;7.30;99.90
8220;DHT22;4151;51.110;7.020;2023-02-11T17:54:12;7.30;99.90
8220;DHT22;4151;51.110;7.020;2023-02-11T17:56:39;7.30;99.90
8220;DHT22;4151;51.110;7.020;2023-02-11T17:59:06;7.30;99.90
8220;DHT22;4151;51.110;7.020;2023-02-11T18:01:33;7.30;99.90
8220;DHT22;4151;51.110;7.020;2023-02-11T18:04:00;7.30;99.90
8220;DHT22;4151;51.110;7.020;2023-02-11T18:06:26;7.30;99.90
8220;DHT22;4151;51.110;7.020;2023-02-11T18:08:53;7.30;99.90
8220;DHT22;4151;51.110;7.020;2023-02-11T18:11:22;7.30;99.90
8220;DHT22;4151;51.110;7.020;2023-02-11T18:13:49;7.30;99.90
8220;DHT22;4151;51.110;7.020;2023-02-11T18:16:19;7.30;99.90
8220;DHT22;4151;51.110;7.020;2023-02-11T18:18:44;7.30;99.90
8220;DHT22;4151;51.110;7.020;2023-02-11T18:21:15;7.30;99.90
8220;DHT22;4151;51.110;7.020;2023-02-11T18:23:42;7.30;99.90
8220;DHT22;4151;51.110;7.020;2023-02-11T18:26:10;7.30;99.90
8220;DHT22;4151;51.110;7.020;2023-02-11T18:28:37;7.30;99.90
8220;DHT22;4151;51.110;7.020;2023-02-11T18:31:03;7.30;99.90
8220;DHT22;4151;51.110;7.020;2023-02-11T18:33:29;7.30;99.90
8220;DHT22;4151;51.110;7.020;2023-02-11T18:35:55;7.20;99.90
8220;DHT22;4151;51.110;7.020;2023-02-11T18:38:21;7.20;99.90
8220;DHT22;4151;51.110;7.020;2023-02-11T18:40:47;7.20;99.90
8220;DHT22;4151;51.110;7.020;2023-02-11T18:43:15;7.20;99.90
8220;DHT22;4151;51.110;7.020;2023-02-11T18:45:42;7.20;99.90
8220;DHT22;4151;51.110;7.020;2023-02-11T18:48:08;7.30;99.90
8220;DHT22;4151;51.110;7.020;2023-02-11T18:50:34;7.30;99.90
8220;DHT22;4151;51.110;7.020;2023-02-11T18:52:59;7.30;99.90
8220;DHT22;4151;51.110;7.020;2023-02-11T19:04:34;7.20;99.90
8220;DHT22;4151;51.110;7.020;2023-02-11T19:07:01;7.20;99.90
8220;DHT22;4151;51.110;7.020;2023-02-11T19:09:29;7.20;99.90
8220;DHT22;4151;51.110;7.020;2023-02-11T19:11:55;7.20;99.90